首页
METAR-TAF:

METAR-TAF

机场 :

Chicago Rockford International Airport

罗克福德, 伊利诺伊州, 美国

纬度: 42-11-34N, 经度: 089-05-36W, 海拔: 224米

当前天气观测

该预报发布于28分钟前的06:54 UTC
风速6节,风向西转西北
温度 11°C
湿度 94%
气压 1009 hPa
能見度: 16.1公里
阴天层高于700英尺

METAR: KRFD 200654Z 30006KT 10SM OVC007 11/10 A2981 RMK AO2 CIG 007V010 SLP095 T01110100

时间: 02:22 (07:22 UTC)

预报

该预报发布于1小时和33分钟前的05:49 UTC
预报有效从20日的 06点(UTC)到 21日的 06点(UTC)
风速4节,风向西转西北
能見度: 10公里
多云层高于1000英尺
阴天层高于3500英尺
从 20日的 0700点(UTC)
风速4节,风向西北
能見度: 9.7公里
散云层高于600英尺
多云层高于1200英尺
轻雾
从 20日的 0900点(UTC)
风速3节,风向多变
能見度: 4.8公里
散云层高于300英尺
多云层高于600英尺
轻雾
短暂存在
从 20日的 11点(UTC)到 20日的 13点(UTC)
能見度: 1.6公里
轻雾
从 20日的 1500点(UTC)
风速6节,风向
能見度: 10公里
散云层高于25000英尺

TAF: KRFD 200549Z 2006/2106 29004KT P6SM BKN010 OVC035 FM200700 31004KT 6SM BR SCT006 BKN012 FM200900 VRB03KT 3SM BR SCT003 BKN006 TEMPO 2011/2013 1SM BR FM201500 08006KT P6SM SCT250

超过4000个机场的气象观测和天气预报(METAR&TAF报告)。

可查询的气象台以黄色和红色小点在地图上表示。

将鼠标移到小点上方,可查看气象台名称。

然后点击查看天气观测和预报。

如需切换地图:点击带黑十字的绿色按钮放大地图;点击带横线的绿色按钮缩小地图;或者点击绿色箭头查看邻近地区的地图。


METAR-TAF: